createdAt,value
2023-03-17T00:00:47.116Z,54.82
2023-03-17T00:03:27.187Z,54.15
2023-03-17T00:05:56.567Z,55.85
2023-03-17T00:08:28.703Z,55.40
2023-03-17T00:10:56.168Z,57.84
2023-03-17T00:13:23.932Z,54.27
2023-03-17T00:16:02.923Z,54.70
2023-03-17T00:18:31.704Z,54.20
2023-03-17T00:20:59.789Z,53.92
2023-03-17T00:23:27.107Z,53.43
2023-03-17T00:25:54.329Z,54.10
2023-03-17T00:28:26.005Z,53.34
2023-03-17T00:30:58.457Z,54.20
2023-03-17T00:33:29.982Z,54.99
2023-03-17T00:35:58.670Z,54.45
2023-03-17T00:38:25.944Z,54.85
2023-03-17T00:40:53.295Z,54.84
2023-03-17T00:43:20.623Z,55.11
2023-03-17T00:45:48.248Z,54.30
2023-03-17T00:48:20.649Z,56.35
2023-03-17T00:50:50.183Z,54.86
2023-03-17T00:53:21.544Z,54.51
2023-03-17T00:55:49.278Z,54.97
2023-03-17T00:58:32.534Z,53.92
2023-03-17T01:01:00.846Z,55.90
2023-03-17T01:03:28.960Z,55.01
2023-03-17T01:06:00.407Z,56.79
2023-03-17T01:08:30.113Z,54.73
2023-03-17T01:10:57.893Z,54.61
2023-03-17T01:13:25.534Z,53.71
2023-03-17T01:15:54.693Z,54.82
2023-03-17T01:18:23.349Z,56.09
2023-03-17T01:20:51.579Z,53.74
2023-03-17T01:23:18.880Z,55.96
2023-03-17T01:25:45.975Z,56.17
2023-03-17T01:28:19.088Z,55.92
2023-03-17T01:30:46.961Z,57.46
2023-03-17T01:33:14.735Z,58.53
2023-03-17T01:35:43.818Z,57.87
2023-03-17T01:38:14.922Z,57.28
2023-03-17T01:40:50.535Z,56.39
2023-03-17T01:43:29.347Z,56.04
2023-03-17T01:46:33.948Z,55.64
2023-03-17T01:49:17.364Z,58.19
2023-03-17T01:52:18.015Z,56.74
2023-03-17T01:55:16.012Z,54.95
2023-03-17T01:57:54.685Z,56.50
2023-03-17T02:00:25.014Z,54.76
2023-03-17T02:02:56.161Z,55.62
2023-03-17T02:05:28.468Z,55.95
2023-03-17T02:07:56.865Z,55.38
2023-03-17T02:10:28.558Z,54.62
2023-03-17T02:13:03.873Z,55.68
2023-03-17T02:15:48.718Z,55.82
2023-03-17T02:18:20.132Z,55.43
2023-03-17T02:20:46.985Z,54.62
2023-03-17T02:23:24.886Z,54.68
2023-03-17T02:25:53.837Z,55.28
2023-03-17T02:28:29.910Z,56.25
2023-03-17T02:30:57.806Z,55.01
2023-03-17T02:33:25.258Z,53.58
2023-03-17T02:35:52.872Z,57.94
2023-03-17T02:38:19.968Z,55.40
2023-03-17T02:40:47.047Z,54.81
2023-03-17T02:43:14.145Z,55.08
2023-03-17T02:45:41.609Z,56.17
2023-03-17T02:48:09.135Z,54.72
2023-03-17T02:50:36.623Z,55.99
2023-03-17T02:53:03.841Z,54.07
2023-03-17T02:55:31.710Z,53.96
2023-03-17T02:57:58.922Z,53.03
2023-03-17T03:00:26.444Z,55.39
2023-03-17T03:02:53.561Z,54.50
2023-03-17T03:05:20.947Z,55.25
2023-03-17T03:07:51.363Z,55.02
2023-03-17T03:10:18.897Z,54.00
2023-03-17T03:12:46.557Z,53.00
2023-03-17T03:15:14.569Z,54.62
2023-03-17T03:17:42.020Z,53.80
2023-03-17T03:20:11.469Z,53.29
2023-03-17T03:22:38.927Z,54.18
2023-03-17T03:25:08.630Z,53.37
2023-03-17T03:27:36.241Z,51.87
2023-03-17T03:30:04.240Z,52.73
2023-03-17T03:32:31.564Z,54.01
2023-03-17T03:34:58.733Z,53.22
2023-03-17T03:37:25.965Z,52.46
2023-03-17T03:39:53.118Z,53.13
2023-03-17T03:42:20.411Z,52.74
2023-03-17T03:44:47.455Z,51.79
2023-03-17T03:47:14.569Z,53.29
2023-03-17T03:49:41.710Z,52.87
2023-03-17T03:52:11.432Z,52.26
2023-03-17T03:54:38.448Z,52.50
2023-03-17T03:57:05.939Z,55.35
2023-03-17T03:59:33.030Z,53.72
2023-03-17T04:02:00.107Z,53.79
2023-03-17T04:04:27.203Z,53.42
2023-03-17T04:06:54.329Z,53.56
2023-03-17T04:09:21.417Z,52.44
2023-03-17T04:11:48.451Z,53.30
2023-03-17T04:14:15.548Z,52.49
2023-03-17T04:16:44.685Z,53.58
2023-03-17T04:19:11.757Z,54.00
2023-03-17T04:21:41.450Z,53.83
2023-03-17T04:24:11.824Z,53.33
2023-03-17T04:26:39.369Z,52.47
2023-03-17T04:29:08.803Z,53.65
2023-03-17T04:31:36.817Z,53.85
2023-03-17T04:34:03.910Z,53.42
2023-03-17T04:36:30.974Z,53.10
2023-03-17T04:38:58.215Z,55.59
2023-03-17T04:41:25.465Z,54.08
2023-03-17T04:43:52.492Z,53.60
2023-03-17T04:46:19.539Z,53.38
2023-03-17T04:48:46.795Z,53.18
2023-03-17T04:51:13.893Z,51.73
2023-03-17T04:53:41.018Z,53.04
2023-03-17T04:56:08.430Z,51.80
2023-03-17T04:58:36.026Z,52.61
2023-03-17T05:01:03.662Z,53.84
2023-03-17T05:03:33.165Z,54.08
2023-03-17T05:06:02.422Z,53.64
2023-03-17T05:08:30.421Z,55.57
2023-03-17T05:10:58.499Z,54.55
2023-03-17T05:13:28.511Z,54.44
2023-03-17T05:15:57.166Z,54.36
2023-03-17T05:18:26.221Z,53.82
2023-03-17T05:20:54.151Z,55.24
2023-03-17T05:23:27.743Z,55.11
2023-03-17T05:25:54.830Z,55.96
2023-03-17T05:28:22.832Z,55.06
2023-03-17T05:30:53.427Z,54.40
2023-03-17T05:33:21.663Z,56.24
2023-03-17T05:35:49.402Z,54.44
2023-03-17T05:38:16.992Z,53.43
2023-03-17T05:40:45.487Z,52.32
2023-03-17T05:43:14.152Z,53.82
2023-03-17T05:45:41.365Z,53.43
2023-03-17T05:48:08.942Z,54.81
2023-03-17T05:50:36.450Z,53.22
2023-03-17T05:53:03.716Z,53.55
2023-03-17T05:55:36.422Z,53.35
2023-03-17T05:58:05.065Z,54.16
2023-03-17T06:00:32.690Z,53.11
2023-03-17T06:03:00.007Z,52.92
2023-03-17T06:05:27.180Z,52.27
2023-03-17T06:07:56.504Z,53.01
2023-03-17T06:10:24.785Z,53.24
2023-03-17T06:12:55.016Z,53.14
2023-03-17T06:15:22.500Z,52.54
2023-03-17T06:17:51.774Z,53.10
2023-03-17T06:20:19.695Z,51.63
2023-03-17T06:23:03.387Z,51.28
2023-03-17T06:25:33.463Z,52.36
2023-03-17T06:28:02.829Z,52.48
2023-03-17T06:30:32.962Z,53.72
2023-03-17T06:33:01.403Z,53.04
2023-03-17T06:35:30.049Z,51.58
2023-03-17T06:37:57.871Z,51.64
2023-03-17T06:40:25.108Z,51.31
2023-03-17T06:42:52.308Z,52.17
2023-03-17T06:45:19.488Z,52.05
2023-03-17T06:47:48.728Z,50.25
2023-03-17T06:50:16.147Z,53.22
2023-03-17T06:52:45.028Z,52.19
2023-03-17T06:55:14.087Z,52.08
2023-03-17T06:57:41.784Z,51.60
2023-03-17T07:00:12.549Z,52.53
2023-03-17T07:02:42.402Z,52.60
2023-03-17T07:05:09.877Z,52.08
2023-03-17T07:07:37.280Z,51.37
2023-03-17T07:10:05.652Z,49.98
2023-03-17T07:12:33.179Z,49.89
2023-03-17T07:15:01.275Z,49.79
2023-03-17T07:17:29.080Z,50.95
2023-03-17T07:19:56.526Z,51.69
2023-03-17T07:22:23.578Z,49.10
2023-03-17T07:24:51.865Z,51.74
2023-03-17T07:27:22.991Z,49.75
2023-03-17T07:29:50.354Z,50.22
2023-03-17T07:32:17.472Z,49.94
2023-03-17T07:34:44.753Z,49.16
2023-03-17T07:37:12.479Z,50.12
2023-03-17T07:39:40.091Z,51.20
2023-03-17T07:42:07.275Z,48.53
2023-03-17T07:44:34.597Z,49.09
2023-03-17T07:47:01.658Z,47.79
2023-03-17T07:49:40.746Z,47.46
2023-03-17T07:52:11.037Z,45.72
2023-03-17T07:54:42.161Z,45.19
2023-03-17T07:57:10.883Z,45.25
2023-03-17T07:59:39.814Z,45.36
2023-03-17T08:02:07.294Z,43.62
2023-03-17T08:04:35.087Z,43.28
2023-03-17T08:07:04.143Z,42.50
2023-03-17T08:09:31.943Z,43.48
2023-03-17T08:12:01.472Z,44.45
2023-03-17T08:14:32.020Z,45.80
2023-03-17T08:17:00.723Z,43.66
2023-03-17T08:19:30.554Z,46.63
2023-03-17T08:21:58.150Z,43.85
2023-03-17T08:24:27.008Z,42.30
2023-03-17T08:26:54.184Z,42.93
2023-03-17T08:29:30.539Z,41.45
2023-03-17T08:31:58.051Z,42.70
2023-03-17T08:34:26.326Z,42.63
2023-03-17T08:36:56.548Z,42.27
2023-03-17T08:39:24.406Z,40.29
2023-03-17T08:41:59.353Z,41.56
2023-03-17T08:44:27.381Z,41.67
2023-03-17T08:47:00.937Z,41.38
2023-03-17T08:49:28.500Z,42.31
2023-03-17T08:51:57.863Z,41.63
2023-03-17T08:54:24.997Z,42.66
2023-03-17T08:56:52.658Z,42.15
2023-03-17T08:59:19.740Z,40.63
2023-03-17T09:01:52.666Z,40.68
2023-03-17T09:04:19.910Z,38.61
2023-03-17T09:07:02.297Z,39.73
2023-03-17T09:09:30.972Z,40.75
2023-03-17T09:12:03.051Z,40.38
2023-03-17T09:14:35.310Z,40.32
2023-03-17T09:17:11.160Z,41.61
2023-03-17T09:19:39.313Z,40.30
2023-03-17T09:22:06.778Z,40.94
2023-03-17T09:24:36.389Z,39.96
2023-03-17T09:27:06.405Z,40.44
2023-03-17T09:29:34.012Z,39.32
2023-03-17T09:32:02.222Z,39.69
2023-03-17T09:34:29.671Z,40.33
2023-03-17T09:36:59.734Z,39.08
2023-03-17T09:39:27.471Z,40.07
2023-03-17T09:42:21.270Z,40.59
2023-03-17T09:45:33.606Z,40.42
2023-03-17T09:49:08.567Z,37.73
2023-03-17T09:51:35.959Z,38.07
2023-03-17T09:54:19.439Z,36.79
2023-03-17T09:57:45.418Z,37.30
2023-03-17T10:00:18.385Z,37.19
2023-03-17T10:02:47.625Z,38.75
2023-03-17T10:05:21.884Z,35.21
2023-03-17T10:08:29.443Z,36.24
2023-03-17T10:11:41.997Z,37.64
2023-03-17T10:14:38.287Z,36.70
2023-03-17T10:17:35.776Z,37.00
2023-03-17T10:20:18.751Z,36.11
2023-03-17T10:22:59.294Z,36.95
2023-03-17T10:25:33.439Z,34.14
2023-03-17T10:28:36.400Z,34.83
2023-03-17T10:31:30.678Z,34.68
2023-03-17T10:34:21.569Z,33.65
2023-03-17T10:37:05.626Z,35.13
2023-03-17T10:39:44.244Z,36.76
2023-03-17T10:42:30.572Z,34.51
2023-03-17T10:45:32.446Z,33.61
2023-03-17T10:48:04.219Z,35.22
2023-03-17T10:50:35.893Z,35.63
2023-03-17T10:53:29.159Z,35.36
2023-03-17T10:56:26.563Z,34.17
2023-03-17T10:58:55.495Z,33.77
2023-03-17T11:01:42.651Z,34.17
2023-03-17T11:04:42.403Z,34.15
2023-03-17T11:07:20.303Z,33.88
2023-03-17T11:09:52.514Z,34.17
2023-03-17T11:12:29.973Z,36.28
2023-03-17T11:15:03.974Z,35.94
2023-03-17T11:17:57.870Z,32.99
2023-03-17T11:20:48.385Z,33.55
2023-03-17T11:23:49.833Z,36.25
2023-03-17T11:26:48.457Z,33.28
2023-03-17T11:30:30.639Z,33.05
2023-03-17T11:33:40.175Z,33.08
2023-03-17T11:37:16.260Z,32.14
2023-03-17T11:40:16.435Z,32.68
2023-03-17T11:43:08.036Z,37.32
2023-03-17T11:46:04.694Z,33.54
2023-03-17T11:49:10.034Z,35.14
2023-03-17T11:52:19.533Z,33.93
2023-03-17T11:55:24.603Z,35.15
2023-03-17T11:58:05.456Z,33.73
2023-03-17T12:00:57.102Z,32.24
2023-03-17T12:03:50.591Z,32.35
2023-03-17T12:06:29.519Z,33.55
2023-03-17T12:09:26.917Z,36.33
2023-03-17T12:11:57.015Z,33.17
2023-03-17T12:14:30.710Z,31.45
2023-03-17T12:17:22.454Z,34.69
2023-03-17T12:20:42.209Z,34.09
2023-03-17T12:23:33.197Z,35.17
2023-03-17T12:26:19.599Z,34.99
2023-03-17T12:29:03.284Z,33.95
2023-03-17T12:31:39.270Z,40.19
2023-03-17T12:35:02.228Z,33.79
2023-03-17T12:37:30.166Z,33.94
2023-03-17T12:40:18.832Z,34.50
2023-03-17T12:43:46.752Z,36.13
2023-03-17T12:46:53.044Z,35.17
2023-03-17T12:49:57.022Z,36.30
2023-03-17T12:53:12.496Z,36.40
2023-03-17T12:55:40.497Z,34.10
2023-03-17T12:58:41.264Z,36.33
2023-03-17T13:01:33.878Z,35.64
2023-03-17T13:04:04.037Z,35.22
2023-03-17T13:07:12.452Z,39.69
2023-03-17T13:09:54.472Z,35.62
2023-03-17T13:12:40.026Z,35.54
2023-03-17T13:15:39.708Z,37.00
2023-03-17T13:18:13.696Z,35.37
2023-03-17T13:20:56.884Z,35.19
2023-03-17T13:23:57.851Z,34.59
2023-03-17T13:27:01.717Z,35.48
2023-03-17T13:29:35.045Z,34.46
2023-03-17T13:32:17.094Z,36.97
2023-03-17T13:34:56.082Z,34.34
2023-03-17T13:37:53.843Z,36.39
2023-03-17T13:41:00.877Z,36.39
2023-03-17T13:43:30.932Z,36.16
2023-03-17T13:46:41.864Z,35.44
2023-03-17T13:49:32.371Z,33.75
2023-03-17T13:52:25.661Z,35.46
2023-03-17T13:55:36.283Z,34.65
2023-03-17T13:58:11.644Z,34.08
2023-03-17T14:00:51.790Z,36.04
2023-03-17T14:03:35.254Z,33.13
2023-03-17T14:06:11.951Z,34.12
2023-03-17T14:08:51.920Z,35.14
2023-03-17T14:11:33.508Z,35.73
2023-03-17T14:14:37.078Z,37.69
2023-03-17T14:17:35.693Z,37.85
2023-03-17T14:20:24.795Z,33.76
2023-03-17T14:23:02.694Z,32.71
2023-03-17T14:25:39.145Z,34.18
2023-03-17T14:28:23.353Z,33.34
2023-03-17T14:31:01.878Z,33.31
2023-03-17T14:33:33.601Z,33.34
2023-03-17T14:36:06.237Z,36.80
2023-03-17T14:38:40.024Z,34.34
2023-03-17T14:41:22.562Z,32.85
2023-03-17T14:43:52.541Z,32.84
2023-03-17T14:46:24.354Z,32.58
2023-03-17T14:49:18.400Z,32.71
2023-03-17T14:51:49.592Z,32.96
2023-03-17T14:54:35.771Z,32.70
2023-03-17T14:57:15.717Z,32.69
2023-03-17T14:59:56.208Z,32.60
2023-03-17T15:02:38.246Z,31.89
2023-03-17T15:05:40.222Z,33.49
2023-03-17T15:08:34.563Z,33.83
2023-03-17T15:11:06.085Z,32.59
2023-03-17T15:13:37.554Z,31.69
2023-03-17T15:16:33.496Z,33.33
2023-03-17T15:19:29.073Z,32.86
2023-03-17T15:22:00.430Z,32.62
2023-03-17T15:25:04.428Z,33.49
2023-03-17T15:27:32.370Z,33.85
2023-03-17T15:29:59.603Z,33.84
2023-03-17T15:32:28.776Z,33.53
2023-03-17T15:34:57.161Z,35.19
2023-03-17T15:37:33.915Z,36.88
2023-03-17T15:40:03.516Z,35.80
2023-03-17T15:42:34.728Z,38.31
2023-03-17T15:45:03.642Z,36.87
2023-03-17T15:47:36.692Z,38.70
2023-03-17T15:50:31.361Z,38.10
2023-03-17T15:52:58.841Z,37.78
2023-03-17T15:55:31.335Z,37.48
2023-03-17T15:58:02.034Z,36.51
2023-03-17T16:00:30.516Z,35.90
2023-03-17T16:03:06.588Z,34.96
2023-03-17T16:05:35.972Z,35.27
2023-03-17T16:08:03.072Z,35.48
2023-03-17T16:10:33.164Z,36.55
2023-03-17T16:13:00.633Z,36.36
2023-03-17T16:15:32.213Z,36.69
2023-03-17T16:18:04.848Z,36.40
2023-03-17T16:20:47.864Z,35.66
2023-03-17T16:23:27.454Z,36.12
2023-03-17T16:26:07.898Z,37.34
2023-03-17T16:28:41.451Z,36.82
2023-03-17T16:31:30.663Z,39.26
2023-03-17T16:34:01.442Z,38.80
2023-03-17T16:36:28.741Z,37.30
2023-03-17T16:38:56.032Z,37.90
2023-03-17T16:41:27.559Z,39.55
2023-03-17T16:44:01.715Z,41.85
2023-03-17T16:46:35.861Z,42.15
2023-03-17T16:49:04.140Z,43.08
2023-03-17T16:51:32.464Z,44.05
2023-03-17T16:53:59.640Z,43.11
2023-03-17T16:56:27.872Z,43.98
2023-03-17T16:58:55.155Z,43.86
2023-03-17T17:01:27.211Z,43.11
2023-03-17T17:03:55.298Z,42.36
2023-03-17T17:06:23.691Z,43.83
2023-03-17T17:08:52.082Z,43.71
2023-03-17T17:11:21.160Z,43.99
2023-03-17T17:13:50.170Z,46.54
2023-03-17T17:16:34.306Z,44.30
2023-03-17T17:19:04.166Z,45.63
2023-03-17T17:21:32.982Z,45.87
2023-03-17T17:24:00.331Z,44.86
2023-03-17T17:26:27.406Z,44.68
2023-03-17T17:28:54.711Z,46.30
2023-03-17T17:31:21.824Z,47.75
2023-03-17T17:33:49.032Z,45.81
2023-03-17T17:36:17.493Z,45.88
2023-03-17T17:38:45.335Z,46.52
2023-03-17T17:41:14.065Z,44.71
2023-03-17T17:43:41.286Z,47.10
2023-03-17T17:46:22.820Z,43.94
2023-03-17T17:48:50.173Z,45.55
2023-03-17T17:51:17.526Z,44.46
2023-03-17T17:53:44.823Z,45.30
2023-03-17T17:56:16.402Z,45.71
2023-03-17T17:58:44.462Z,44.71
2023-03-17T18:01:19.898Z,45.54
2023-03-17T18:03:47.077Z,45.80
2023-03-17T18:06:14.631Z,49.97
2023-03-17T18:08:43.411Z,45.54
2023-03-17T18:11:11.216Z,45.46
2023-03-17T18:13:39.055Z,43.97
2023-03-17T18:16:09.892Z,45.04
2023-03-17T18:18:40.532Z,48.95
2023-03-17T18:21:08.070Z,46.87
2023-03-17T18:23:38.603Z,47.53
2023-03-17T18:26:06.368Z,46.85
2023-03-17T18:28:34.062Z,46.37
2023-03-17T18:31:12.916Z,47.59
2023-03-17T18:33:42.108Z,48.57
2023-03-17T18:36:11.262Z,47.96
2023-03-17T18:38:38.833Z,48.56
2023-03-17T18:41:08.037Z,49.31
2023-03-17T18:43:35.314Z,48.41
2023-03-17T18:46:02.439Z,48.66
2023-03-17T18:48:29.590Z,46.81
2023-03-17T18:50:56.666Z,47.59
2023-03-17T18:53:23.808Z,47.54
2023-03-17T18:55:50.924Z,46.53
2023-03-17T18:58:20.061Z,47.03
2023-03-17T19:00:49.581Z,47.04
2023-03-17T19:03:17.249Z,45.68
2023-03-17T19:05:44.426Z,44.98
2023-03-17T19:08:11.562Z,45.31
2023-03-17T19:10:42.153Z,45.75
2023-03-17T19:13:10.337Z,44.86
2023-03-17T19:15:37.462Z,44.37
2023-03-17T19:18:04.772Z,46.84
2023-03-17T19:20:33.734Z,46.01
2023-03-17T19:23:01.995Z,46.32
2023-03-17T19:25:31.555Z,45.49
2023-03-17T19:27:59.138Z,47.31
2023-03-17T19:30:26.253Z,45.95
2023-03-17T19:32:54.488Z,45.70
2023-03-17T19:35:22.170Z,45.34
2023-03-17T19:37:49.237Z,47.61
2023-03-17T19:40:16.792Z,44.84
2023-03-17T19:42:43.810Z,45.43
2023-03-17T19:45:11.585Z,44.58
2023-03-17T19:47:38.675Z,44.66
2023-03-17T19:50:07.064Z,43.96
2023-03-17T19:52:34.202Z,45.14
2023-03-17T19:55:01.368Z,45.49
2023-03-17T19:57:28.437Z,44.85
2023-03-17T19:59:55.523Z,46.73
2023-03-17T20:02:22.573Z,47.77
2023-03-17T20:04:52.252Z,46.23
2023-03-17T20:07:19.445Z,46.60
2023-03-17T20:09:47.920Z,44.93
2023-03-17T20:12:15.727Z,45.71
2023-03-17T20:14:42.813Z,44.86
2023-03-17T20:17:09.961Z,46.94
2023-03-17T20:19:39.227Z,45.40
2023-03-17T20:22:12.851Z,46.57
2023-03-17T20:24:39.921Z,47.15
2023-03-17T20:27:08.340Z,44.89
2023-03-17T20:29:35.432Z,43.51
2023-03-17T20:32:02.791Z,44.51
2023-03-17T20:34:31.697Z,45.64
2023-03-17T20:36:58.793Z,45.08
2023-03-17T20:39:26.207Z,46.67
2023-03-17T20:41:54.063Z,44.52
2023-03-17T20:44:21.536Z,45.08
2023-03-17T20:46:48.655Z,45.41
2023-03-17T20:49:17.284Z,46.18
2023-03-17T20:51:46.210Z,44.89
2023-03-17T20:54:13.478Z,46.13
2023-03-17T20:56:40.709Z,44.69
2023-03-17T20:59:09.633Z,44.75
2023-03-17T21:01:38.661Z,46.26
2023-03-17T21:04:08.882Z,45.51
2023-03-17T21:06:39.573Z,45.38
2023-03-17T21:09:06.624Z,46.55
2023-03-17T21:11:33.989Z,47.58
2023-03-17T21:14:03.271Z,47.64
2023-03-17T21:16:30.964Z,46.09
2023-03-17T21:18:58.787Z,46.00
2023-03-17T21:21:27.023Z,45.43
2023-03-17T21:23:55.625Z,45.65
2023-03-17T21:26:22.957Z,45.75
2023-03-17T21:28:50.371Z,49.76
2023-03-17T21:31:17.818Z,49.75
2023-03-17T21:33:48.362Z,49.13
2023-03-17T21:36:16.153Z,51.52
2023-03-17T21:38:43.645Z,51.29
2023-03-17T21:41:36.347Z,54.73
2023-03-17T21:44:05.055Z,52.96
2023-03-17T21:46:33.488Z,52.81
2023-03-17T21:49:01.387Z,52.70
2023-03-17T21:51:28.627Z,53.12
2023-03-17T21:53:57.602Z,53.65
2023-03-17T21:56:24.834Z,54.00
2023-03-17T21:58:55.711Z,54.53
2023-03-17T22:01:23.037Z,56.52
2023-03-17T22:03:52.037Z,55.93
2023-03-17T22:06:20.228Z,55.19
2023-03-17T22:08:48.667Z,56.56
2023-03-17T22:11:19.184Z,56.15
2023-03-17T22:13:47.135Z,56.00
2023-03-17T22:16:16.347Z,56.87
2023-03-17T22:18:44.006Z,56.71
2023-03-17T22:21:11.508Z,58.18
2023-03-17T22:23:42.319Z,57.85
2023-03-17T22:26:20.663Z,56.19
2023-03-17T22:28:50.166Z,57.90
2023-03-17T22:31:25.442Z,57.11
2023-03-17T22:33:56.667Z,57.19
2023-03-17T22:36:25.565Z,56.45
2023-03-17T22:38:53.589Z,54.75
2023-03-17T22:41:25.098Z,52.70
2023-03-17T22:43:52.154Z,52.05
2023-03-17T22:46:23.570Z,55.15
2023-03-17T22:48:54.533Z,54.03
2023-03-17T22:51:26.469Z,55.64
2023-03-17T22:53:54.921Z,55.78
2023-03-17T22:56:22.229Z,55.10
2023-03-17T22:58:49.566Z,55.60
2023-03-17T23:01:22.301Z,55.92
2023-03-17T23:03:50.185Z,55.37
2023-03-17T23:06:17.990Z,56.16
2023-03-17T23:08:47.004Z,55.11
2023-03-17T23:11:24.550Z,55.08
2023-03-17T23:13:55.309Z,53.87
2023-03-17T23:16:22.771Z,53.23
2023-03-17T23:18:50.783Z,53.15
2023-03-17T23:21:29.193Z,53.57
2023-03-17T23:23:59.594Z,52.60
2023-03-17T23:26:28.217Z,54.69
2023-03-17T23:28:55.772Z,55.23
2023-03-17T23:31:23.565Z,55.35
2023-03-17T23:33:51.464Z,54.31
2023-03-17T23:36:19.132Z,54.95
2023-03-17T23:38:47.365Z,54.87
2023-03-17T23:41:15.369Z,54.85
2023-03-17T23:43:44.006Z,52.37
2023-03-17T23:46:13.407Z,52.72
2023-03-17T23:48:42.968Z,50.93
2023-03-17T23:51:12.438Z,52.66
2023-03-17T23:53:40.347Z,52.26
2023-03-17T23:56:08.682Z,53.36
2023-03-17T23:58:36.164Z,52.84
